Terminal Aerodrome Forecast
Issued by NWS Austin/San Antonio, TX

Home | Current Version | Previous Version | Text Only | Print | Product List | Glossary On
Versions: 1 2 3 4 5 6 7 8 9 10 11 12 13 14 15 16 17
000
FTUS44 KEWX 252300 RRA
TAFSAT
TAF
KSAT 252341Z 2600/2706 17012G18KT P6SM FEW250
     FM260100 16012KT P6SM SCT250
     FM260800 15007KT P6SM OVC015
     FM261100 17003KT 4SM BR OVC007
     FM261700 18012G17KT 5SM BR OVC015
     FM262100 18012KT P6SM OVC025
     FM270100 16009KT P6SM OVC015=

USA.gov is the U.S. government's official web portal to all federal, state and local government web resources and services.